Terminal Aerodrome Forecast
Issued by NWS

Home | Current Version | Previous Version | Text Only | Print | Product List | Glossary On
Versions: 1 2 3 4 5 6 7 8 9 10 11 12
000
FTUS42 KMLB 210500
TAFSUA
TAF
KSUA 210535Z 2106/2206 VRB02KT P6SM FEW050 SCT100
      TEMPO 2109/2112 5SM BR FEW010
     FM211500 17008KT P6SM SCT035 OVC100
     FM220200 19004KT P6SM SCT040 OVC080=

USA.gov is the U.S. government's official web portal to all federal, state and local government web resources and services.